(°C)
13°
14°
14°
14°
13°
12°
11°
(°C)
10°
10°
11°
10°
10°
10°
BKB
BKB
BKB
B
B
BGB
BGB
(km/saat)
15-19
15-20
14-22
13-21
12-20
10-18
10-20
(mm)
0
0
0
0
0
0
0
(%)
46
33
11
10
3
2
1

Güneşin açısı

/ 39.2°
sun-icon
UV 2
05:50
17:59
Azalan ay (220°)
19:33
09:11

46.38°K 44.32°D (URWI) için METAR

Zaman Koşullar Sıcaklık/
Çiy noktası
Rüzgar Görünürlük Hava Bulutlar Basınç Değiştir Ham
VFR 13°C / 8°C 310º variable 280º to 340º 8kt >10km - Scattered Clouds 1800ft 1012 No Significant change. Runway 27: Wet or puddles, 51-100% contamination with 2mm, friction coefficient 0.50. URWI 241000Z 31004MPS 280V340 9999 SCT018CB 13/08 Q1012 R27/290250 NOSIG
13°C / 9°C 320º variable 290º to 360º 8kt >10km - 1011 No Significant change. Runway 27: Wet or puddles, 51-100% contamination with 2mm, friction coefficient 0.50. URWI 240930Z 32004MPS 290V360 9999 SCT///CB 13/09 Q1011 R27/290250 NOSIG
VFR 12°C / 8°C 330º 8kt >10km - Scattered Clouds 1400ft 1012 No Significant change. Runway 27: Wet or puddles, 51-100% contamination with 2mm, friction coefficient 0.50. URWI 240900Z 33004MPS 9999 SCT014CB 12/08 Q1012 R27/290250 NOSIG
MVFR 11°C / 9°C 340º 8kt >10km - Broken Clouds 2000ft 1012 No Significant change. Runway 27: Wet or puddles, 51-100% contamination with 2mm, friction coefficient 0.50. URWI 240830Z 34004MPS 9999 FEW/// BKN020CB 11/09 Q1012 R27/290250 NOSIG
VFR 11°C / 10°C 340º 8kt >10km Light Showers Rain 3.00mm precipitation Vertical Visibility of 0ft. 1012 Temporary: Visibility 0800. Heavy Showers Rain . Scattered Clouds 300ft. Broken Clouds 2000ft. Cumulonimbus . Runway 27: Wet or puddles, 51-100% contamination with 2mm, friction coefficient 0.50. URWI 240800Z 34004MPS 9999 -SHRA SCT008 BKN040CB 11/10 Q1012 R27/290250 TEMPO 0800 +SHRA SCT003 BKN020CB
VFR 11°C / 10°C 340º 10kt 9000m Light Showers Rain 3.00mm precipitation Vertical Visibility of 0ft. 1012 Temporary: Visibility 0800. Heavy Showers Rain . Scattered Clouds 300ft. Broken Clouds 2000ft. Cumulonimbus . Runway 27: Wet or puddles, 51-100% contamination with 2mm, friction coefficient 0.50. URWI 240730Z 34005MPS 9000 -SHRA SCT009 BKN037CB 11/10 Q1012 R27/290250 TEMPO 0800 +SHRA SCT003 BKN020CB
MVFR 11°C / 10°C 340º 8kt 8000m Light Showers Rain 3.00mm precipitation Vertical Visibility of 0ft. 1012 Temporary: Visibility 0800. Heavy Showers Rain . Scattered Clouds 300ft. Broken Clouds 2000ft. Cumulonimbus RMK QBB140 . Runway 27: Wet or puddles, 51-100% contamination with 2mm, friction coefficient 0.50. URWI 240700Z 34004MPS 8000 -SHRA FEW004 SCT036CB 11/10 Q1012 R27/290250 TEMPO 0800 +SHRA SCT003 BKN020CB RMK QBB140
MVFR 11°C / 9°C 340º 6kt 7000m Light Showers Rain 3.00mm precipitation Vertical Visibility of 0ft. 1012 Temporary: Visibility 0800. Heavy Showers Rain . Scattered Clouds 300ft. Broken Clouds 2000ft. Cumulonimbus URWI 240630Z 34003MPS 7000 -SHRA FEW/// SCT038CB 11/09 Q1012 TEMPO 0800 +SHRA SCT003 BKN020CB
MVFR 11°C / 9°C 350º 6kt 6000m Light Showers Rain 3.00mm precipitation Vertical Visibility of 0ft. 1012 Temporary: Visibility 0800. Heavy Showers Rain . Scattered Clouds 300ft. Broken Clouds 2000ft. Cumulonimbus URWI 240600Z 35003MPS 6000 -SHRA FEW/// SCT027CB 11/09 Q1012 TEMPO 0800 +SHRA SCT003 BKN020CB
IFR 11°C / 9°C 350º 8kt 4500m Light Showers Rain 3.00mm precipitation Vertical Visibility of 0ft. 1012 Temporary: Visibility 0800. Heavy Showers Rain . Scattered Clouds 300ft. Broken Clouds 2000ft. Cumulonimbus URWI 240530Z 35004MPS 4500 -SHRA FEW/// SCT030CB 11/09 Q1012 TEMPO 0800 +SHRA SCT003 BKN020CB
MVFR 11°C / 9°C 360º 6kt 5000m Light Showers Rain 3.00mm precipitation Vertical Visibility of 0ft. 1012 Temporary: Visibility 0800. Heavy Showers Rain . Scattered Clouds 300ft. Broken Clouds 2000ft. Cumulonimbus URWI 240500Z 36003MPS 5000 -SHRA SCT015CB 11/09 Q1012 TEMPO 0800 +SHRA SCT003 BKN020CB
11°C / 9°C 350º 6kt 5000m - 1011 - URWI 240430Z AUTO 35003MPS 5000 // ///022/// 11/09 Q1011
11°C / 10°C 350º 4kt 5000m - 1011 - URWI 240400Z AUTO 35002MPS 5000 // ///042/// 11/10 Q1011
11°C / 9°C 360º 6kt 6000m - 1011 - URWI 240330Z AUTO 36003MPS 6000 // ///045/// 11/09 Q1011
11°C / 9°C 360º 8kt 7000m - 1011 - URWI 240300Z AUTO 36004MPS 7000 // ///058/// 11/09 Q1011
11°C / 10°C 10º 8kt 8000m - 1011 - URWI 240230Z AUTO 01004MPS 8000 // ///038/// 11/10 Q1011
11°C / 10°C 360º 8kt 7000m - 1011 - URWI 240200Z AUTO 36004MPS 7000 // ///059/// 11/10 Q1011
11°C / 10°C 360º 6kt 8000m - 1011 - URWI 240130Z AUTO 36003MPS 8000 // ///039/// 11/10 Q1011
11°C / 10°C 20º 6kt >10km - 1011 - URWI 240100Z AUTO 02003MPS 9999 // ///043/// 11/10 Q1011
12°C / 10°C 30º 10kt >10km - 1011 - URWI 240030Z AUTO 03005MPS 9999 // ///040/// 12/10 Q1011
12°C / 10°C 40º 10kt >10km - 1011 - URWI 240000Z AUTO 04005MPS 9999 // ///047/// 12/10 Q1011
12°C / 9°C 30º 6kt >10km - 1011 - URWI 232330Z AUTO 03003MPS 9999 // ///048/// 12/09 Q1011
12°C / 9°C 20º 4kt >10km - 1011 - URWI 232300Z AUTO 02002MPS 9999 // ///047/// 12/09 Q1011
12°C / 10°C 20º 8kt >10km - 1011 - URWI 232230Z AUTO 02004MPS 9999 // ///056/// 12/10 Q1011

VFR

13°C / 8°C

[Daha fazla]
Rüzgar 310º variable 280º to 340º 8kt
Görünürlük >10km
Hava -
Bulutlar Scattered Clouds 1800ft
Basınç 1012
Değiştir No Significant change. Runway 27: Wet or puddles, 51-100% contamination with 2mm, friction coefficient 0.50.
Ham URWI 241000Z 31004MPS 280V340 9999 SCT018CB 13/08 Q1012 R27/290250 NOSIG

13°C / 9°C

[Daha fazla]
Rüzgar 320º variable 290º to 360º 8kt
Görünürlük >10km
Hava -
Bulutlar
Basınç 1011
Değiştir No Significant change. Runway 27: Wet or puddles, 51-100% contamination with 2mm, friction coefficient 0.50.
Ham URWI 240930Z 32004MPS 290V360 9999 SCT///CB 13/09 Q1011 R27/290250 NOSIG

VFR

12°C / 8°C

[Daha fazla]
Rüzgar 330º 8kt
Görünürlük >10km
Hava -
Bulutlar Scattered Clouds 1400ft
Basınç 1012
Değiştir No Significant change. Runway 27: Wet or puddles, 51-100% contamination with 2mm, friction coefficient 0.50.
Ham URWI 240900Z 33004MPS 9999 SCT014CB 12/08 Q1012 R27/290250 NOSIG

MVFR

11°C / 9°C

[Daha fazla]
Rüzgar 340º 8kt
Görünürlük >10km
Hava -
Bulutlar Broken Clouds 2000ft
Basınç 1012
Değiştir No Significant change. Runway 27: Wet or puddles, 51-100% contamination with 2mm, friction coefficient 0.50.
Ham URWI 240830Z 34004MPS 9999 FEW/// BKN020CB 11/09 Q1012 R27/290250 NOSIG

VFR

11°C / 10°C

[Daha fazla]
Rüzgar 340º 8kt
Görünürlük >10km
Hava Light Showers Rain 3.00mm precipitation
Bulutlar Vertical Visibility of 0ft.
Basınç 1012
Değiştir Temporary: Visibility 0800. Heavy Showers Rain . Scattered Clouds 300ft. Broken Clouds 2000ft. Cumulonimbus . Runway 27: Wet or puddles, 51-100% contamination with 2mm, friction coefficient 0.50.
Ham URWI 240800Z 34004MPS 9999 -SHRA SCT008 BKN040CB 11/10 Q1012 R27/290250 TEMPO 0800 +SHRA SCT003 BKN020CB

VFR

11°C / 10°C

[Daha fazla]
Rüzgar 340º 10kt
Görünürlük 9000m
Hava Light Showers Rain 3.00mm precipitation
Bulutlar Vertical Visibility of 0ft.
Basınç 1012
Değiştir Temporary: Visibility 0800. Heavy Showers Rain . Scattered Clouds 300ft. Broken Clouds 2000ft. Cumulonimbus . Runway 27: Wet or puddles, 51-100% contamination with 2mm, friction coefficient 0.50.
Ham URWI 240730Z 34005MPS 9000 -SHRA SCT009 BKN037CB 11/10 Q1012 R27/290250 TEMPO 0800 +SHRA SCT003 BKN020CB

MVFR

11°C / 10°C

[Daha fazla]
Rüzgar 340º 8kt
Görünürlük 8000m
Hava Light Showers Rain 3.00mm precipitation
Bulutlar Vertical Visibility of 0ft.
Basınç 1012
Değiştir Temporary: Visibility 0800. Heavy Showers Rain . Scattered Clouds 300ft. Broken Clouds 2000ft. Cumulonimbus RMK QBB140 . Runway 27: Wet or puddles, 51-100% contamination with 2mm, friction coefficient 0.50.
Ham URWI 240700Z 34004MPS 8000 -SHRA FEW004 SCT036CB 11/10 Q1012 R27/290250 TEMPO 0800 +SHRA SCT003 BKN020CB RMK QBB140

MVFR

11°C / 9°C

[Daha fazla]
Rüzgar 340º 6kt
Görünürlük 7000m
Hava Light Showers Rain 3.00mm precipitation
Bulutlar Vertical Visibility of 0ft.
Basınç 1012
Değiştir Temporary: Visibility 0800. Heavy Showers Rain . Scattered Clouds 300ft. Broken Clouds 2000ft. Cumulonimbus
Ham URWI 240630Z 34003MPS 7000 -SHRA FEW/// SCT038CB 11/09 Q1012 TEMPO 0800 +SHRA SCT003 BKN020CB

MVFR

11°C / 9°C

[Daha fazla]
Rüzgar 350º 6kt
Görünürlük 6000m
Hava Light Showers Rain 3.00mm precipitation
Bulutlar Vertical Visibility of 0ft.
Basınç 1012
Değiştir Temporary: Visibility 0800. Heavy Showers Rain . Scattered Clouds 300ft. Broken Clouds 2000ft. Cumulonimbus
Ham URWI 240600Z 35003MPS 6000 -SHRA FEW/// SCT027CB 11/09 Q1012 TEMPO 0800 +SHRA SCT003 BKN020CB

IFR

11°C / 9°C

[Daha fazla]
Rüzgar 350º 8kt
Görünürlük 4500m
Hava Light Showers Rain 3.00mm precipitation
Bulutlar Vertical Visibility of 0ft.
Basınç 1012
Değiştir Temporary: Visibility 0800. Heavy Showers Rain . Scattered Clouds 300ft. Broken Clouds 2000ft. Cumulonimbus
Ham URWI 240530Z 35004MPS 4500 -SHRA FEW/// SCT030CB 11/09 Q1012 TEMPO 0800 +SHRA SCT003 BKN020CB

MVFR

11°C / 9°C

[Daha fazla]
Rüzgar 360º 6kt
Görünürlük 5000m
Hava Light Showers Rain 3.00mm precipitation
Bulutlar Vertical Visibility of 0ft.
Basınç 1012
Değiştir Temporary: Visibility 0800. Heavy Showers Rain . Scattered Clouds 300ft. Broken Clouds 2000ft. Cumulonimbus
Ham URWI 240500Z 36003MPS 5000 -SHRA SCT015CB 11/09 Q1012 TEMPO 0800 +SHRA SCT003 BKN020CB

11°C / 9°C

[Daha fazla]
Rüzgar 350º 6kt
Görünürlük 5000m
Hava -
Bulutlar
Basınç 1011
Değiştir -
Ham URWI 240430Z AUTO 35003MPS 5000 // ///022/// 11/09 Q1011

11°C / 10°C

[Daha fazla]
Rüzgar 350º 4kt
Görünürlük 5000m
Hava -
Bulutlar
Basınç 1011
Değiştir -
Ham URWI 240400Z AUTO 35002MPS 5000 // ///042/// 11/10 Q1011

11°C / 9°C

[Daha fazla]
Rüzgar 360º 6kt
Görünürlük 6000m
Hava -
Bulutlar
Basınç 1011
Değiştir -
Ham URWI 240330Z AUTO 36003MPS 6000 // ///045/// 11/09 Q1011

11°C / 9°C

[Daha fazla]
Rüzgar 360º 8kt
Görünürlük 7000m
Hava -
Bulutlar
Basınç 1011
Değiştir -
Ham URWI 240300Z AUTO 36004MPS 7000 // ///058/// 11/09 Q1011

11°C / 10°C

[Daha fazla]
Rüzgar 10º 8kt
Görünürlük 8000m
Hava -
Bulutlar
Basınç 1011
Değiştir -
Ham URWI 240230Z AUTO 01004MPS 8000 // ///038/// 11/10 Q1011

11°C / 10°C

[Daha fazla]
Rüzgar 360º 8kt
Görünürlük 7000m
Hava -
Bulutlar
Basınç 1011
Değiştir -
Ham URWI 240200Z AUTO 36004MPS 7000 // ///059/// 11/10 Q1011

11°C / 10°C

[Daha fazla]
Rüzgar 360º 6kt
Görünürlük 8000m
Hava -
Bulutlar
Basınç 1011
Değiştir -
Ham URWI 240130Z AUTO 36003MPS 8000 // ///039/// 11/10 Q1011

11°C / 10°C

[Daha fazla]
Rüzgar 20º 6kt
Görünürlük >10km
Hava -
Bulutlar
Basınç 1011
Değiştir -
Ham URWI 240100Z AUTO 02003MPS 9999 // ///043/// 11/10 Q1011

12°C / 10°C

[Daha fazla]
Rüzgar 30º 10kt
Görünürlük >10km
Hava -
Bulutlar
Basınç 1011
Değiştir -
Ham URWI 240030Z AUTO 03005MPS 9999 // ///040/// 12/10 Q1011

12°C / 10°C

[Daha fazla]
Rüzgar 40º 10kt
Görünürlük >10km
Hava -
Bulutlar
Basınç 1011
Değiştir -
Ham URWI 240000Z AUTO 04005MPS 9999 // ///047/// 12/10 Q1011

12°C / 9°C

[Daha fazla]
Rüzgar 30º 6kt
Görünürlük >10km
Hava -
Bulutlar
Basınç 1011
Değiştir -
Ham URWI 232330Z AUTO 03003MPS 9999 // ///048/// 12/09 Q1011

12°C / 9°C

[Daha fazla]
Rüzgar 20º 4kt
Görünürlük >10km
Hava -
Bulutlar
Basınç 1011
Değiştir -
Ham URWI 232300Z AUTO 02002MPS 9999 // ///047/// 12/09 Q1011

12°C / 10°C

[Daha fazla]
Rüzgar 20º 8kt
Görünürlük >10km
Hava -
Bulutlar
Basınç 1011
Değiştir -
Ham URWI 232230Z AUTO 02004MPS 9999 // ///056/// 12/10 Q1011

46.38°K 44.32°D (URWI) için TAF

From till


From till Wind 340º 6kt. Gust 19kt. Visibility 6000m. Light Showers Rain . Scattered Clouds 1600ft. Scattered Clouds 3000ft.
Temporarly from till Wind 260º 12kt. Gust 23kt. Few Clouds 400ft. Broken Clouds 3000ft.

Ham: TAF URWI 240756Z 2409/2418 34003G10MPS 6000 -SHRA SCT016 SCT030CB TEMPO 2409/2418 26006G12MPS FEW004 BKN030CB

46.38°K 44.32°D için şu anki uydu ve yağmur görüntüleri

Konum işaretleyici 46.38°K 44.32°D üzerine yerleştirilir. [Daha fazla]

Gerçek zamanlı uydu görüntüsü gündüz süresince görülür ışığı gece süresince kızılötesi ışınım ile birleştirir. Gece kızılötesi ışınım sıcaklık farklarını algılayabildiğinden dolayı görüntü karanlık değildir. Ancak düşük bulutları ve sisi yer sıcaklığından ayırmak zordur ve bu nedenle gece boyunca neredeyse görünmez olabilirler. Avrupa için Meteosat uydu görüntüleri gerçek zamanlı olarak her 5 dakikada bir güncellenir. GOES-16/GOES-17 (Kuzey ve Güney Amerika) ve Himawari (Asya) görüntüleri her 10 dakikada bir güncellenir.

Copyright 2021 EUMETSAT / meteoblue. / Copyright 2021 meteoblue

46.38°K 44.32°D için radar ve yağış nowcast

çiseleyen yağmur
Hafif
Orta
Ağır
Çok ağır
Selamlamak

Konum işaretleyicisi 46.38°K 44.32°D üzerine yerleştirilir. Bu animasyon son saat içerisindeki yağış radarını ve 1h tahminini gösterir. Radar için çiseleyen yağmur veya hafif kar yağışı görünmez olabilir. Yağış yoğunluğu açık maviden turuncuya değişen renk kodludur.